OKBKOEDF

Guest
Details From OKBK - KUWAIT INTL
To OEDF - KING FAHD INTL
Flight Number -
Tags generated
Created
Modified
Stats Distance 192 nm / 355 km
Max Altitude 21,000 ft / 6,401 m
Waypoints 3
Social Downloads 1
Likes 0
Share VATSIM

Download

Looking for another format? Having issues loading an existing format? Contact us
Advertisement - Login to hide

Notes

Basic altitude profile: - Ascent Rate: 2500ft/min - Ascent Speed: 250kts - Cruise Altitude: 35000ft - Cruise Speed: 420kts - Descent Rate: 1500ft/min - Descent Speed: 250kts Options: - Use NATs: yes - Use PACOTS: yes - Use low airways: yes - Use high airways: yes

Route

OKBK DAVGU OEDF

ID Type Via Altitude Latitude Longitude Leg Dist Tot Dist Heading (true) Name
O OKBK APT - 0 ft / 0 m 29.22672˚ 47.97997˚ - 0 nm - KUWAIT INTL
DAVGU FIX - 21,000 ft / 6,401 m 27.83694˚ 48.78694˚ 93 nm 93 nm 153° / 153° -
O OEDF APT - 0 ft / 0 m 26.47120˚ 49.79790˚ 98 nm 191 nm 146° / 147° KING FAHD INTL

Altitude Profile

Advertisement - Login to hide

Weather


0- 5 10 15 20 25 30 35+ Temperature / ° C

Clouds and Precipitation
Forecast for 2017-12-19 00:00 UTC. Updated 2 hours ago

Ground ~20,000 ft ~40,000 ft Winds

OKBK

Details ICAO OKBK (KWI)
Name KUWAIT INTL
Region Kuwait
Timezone Asia/Kuwait (UTC+3.0)
Stats Elevation 206 ft / 63 m (AMSL)
Location 29.226716° 47.979968°
Runways 2
Magnetic Variation 3.574° E

METAR

OKBK 182200Z 22005KT 6000 SKC 09/M02 Q1025 NOSIG

Decode

TAF

TAF TAF OKBK 181645Z 1818/1924 33010KT 7000 SKC TEMPO 1818/1904 VRB03KT

Decode

Departure Runways

ID Width Length Bearing (true) Bearing (mag) Surface Threshold Offset Overrun Length
15L 148 ft / 45 m 11,515 ft / 3,510 m 155.13° 151.56° Asphalt 0 ft / 0 m 394 ft / 120 m
15R 148 ft / 45 m 11,188 ft / 3,410 m 155.12° 151.55° Concrete 0 ft / 0 m 197 ft / 60 m
33L 148 ft / 45 m 11,188 ft / 3,410 m 335.13° 331.56° Concrete 0 ft / 0 m 197 ft / 60 m
33R 148 ft / 45 m 11,515 ft / 3,510 m 335.14° 331.57° Asphalt 0 ft / 0 m 394 ft / 120 m

OEDF

Details ICAO OEDF (DMM)
Name KING FAHD INTL
Region Saudi Arabia
Timezone Asia/Riyadh (UTC+3.0)
Stats Elevation 72 ft / 22 m (AMSL)
Location 26.471197° 49.797900°
Runways 2
Magnetic Variation 2.897° E

METAR

OEDF 182200Z 29007KT CAVOK 12/06 Q1024 NOSIG

Decode

TAF

TAF OEDF 181500Z 1818/1924 30010KT CAVOK= TAF OEDR 181500Z 1818/1924 30010KT SPUS13 KAWN 181656 RRK SPECI KFSI 181655Z AUTO 19004KT 1 3/8SM BR OVC003 06/06 A3018 RMK AO2 VIS 7/8V1 3/8 SLP225

Decode

Destination Runways

ID Width Length Bearing (true) Bearing (mag) Surface Threshold Offset Overrun Length
16L 197 ft / 60 m 13,170 ft / 4,014 m 164.55° 161.65° Asphalt 0 ft / 0 m 1,130 ft / 344 m
16R 197 ft / 60 m 13,170 ft / 4,014 m 164.54° 161.64° Asphalt 0 ft / 0 m 1,130 ft / 344 m
34L 197 ft / 60 m 13,170 ft / 4,014 m 344.54° 341.64° Asphalt 0 ft / 0 m 1,130 ft / 344 m
34R 197 ft / 60 m 13,170 ft / 4,014 m 344.55° 341.65° Asphalt 0 ft / 0 m 1,130 ft / 344 m

Approach Navaids

Runway Type Ident Frequency Range Bearing (true) Bearing (mag) Slope Elevation
16L Localiser IMBF 111.70 MHz 18 nm / 33 km 164.56° 161.66° - 72 ft / 22 m (AMSL)
16L Glidescope IMBF 111.70 MHz 10 nm / 19 km 164.55° 161.65° 3.00° 72 ft / 22 m (AMSL)
16R Localiser IWSR 108.10 MHz 18 nm / 33 km 164.60° 161.70° - 72 ft / 22 m (AMSL)
16R Glidescope IWSR 108.10 MHz 10 nm / 19 km 164.54° 161.64° 3.00° 72 ft / 22 m (AMSL)
34L Localiser IWMR 108.90 MHz 18 nm / 33 km 344.48° 341.59° - 72 ft / 22 m (AMSL)
34L Glidescope IWMR 108.90 MHz 10 nm / 19 km 344.54° 341.64° 3.00° 72 ft / 22 m (AMSL)
34R Localiser IABF 110.70 MHz 18 nm / 33 km 344.55° 341.65° - 72 ft / 22 m (AMSL)
34R Glidescope IABF 110.70 MHz 10 nm / 19 km 344.55° 341.65° 3.00° 72 ft / 22 m (AMSL)

Popular Alternatives